Latest Weather Observations for Swan Hill

IDN60801

Issued at 3:05 pm EST Wednesday 3 September 2014 (issued every 30 minutes, with the page automatically refreshed every 10 minutes)

About weather observations | Map of weather stations | Latest weather observations for NSW | Other Formats
Station Details ID: 077094 Name: SWAN HILL AERODROME Lat: -35.38 Lon: 143.54 Height: 71.0 m
Data from the previous 72 hours. | See also: Recent months at Swan Hill
Date/Time
EST
Temp
°C
App
Temp
°C
Dew
Point
Rel
Hum
%
Delta-T
°C
Wind Press
QNH
hPa
Press
MSL
hPa
Rain
since 9 am
mm
Dir
 
Spd
km/h
Gust
km/h
Spd
kts
Gust
kts
03/03:00pm 14.5 9.6 -0.7 35 6.3 SW 15 20 8 11 1020.3 1020.3 0.0
03/02:30pm 14.8 10.3 -0.2 36 6.3 SSW 13 19 7 10 1020.2 - 0.0
03/02:00pm 14.4 10.3 -0.2 36 6.1 SSW 11 20 6 11 1020.6 - 0.0
03/01:30pm 13.8 10.4 -0.5 37 5.9 SSW 7 13 4 7 1020.8 - 0.0
03/01:00pm 13.3 9.2 -0.3 39 5.6 SSW 11 17 6 9 1021.4 - 0.0
03/12:30pm 12.9 8.7 -0.6 39 5.5 SSW 11 19 6 10 1021.9 - 0.0
03/12:00pm 13.0 9.5 1.3 45 5.0 SE 9 15 5 8 1022.3 1022.3 0.0
03/11:30am 12.4 8.3 -0.3 41 5.2 SSE 11 19 6 10 1022.9 - 0.0
03/11:00am 11.4 7.0 0.5 47 4.5 S 13 20 7 11 1023.2 - 0.0
03/10:30am 11.7 6.9 0.3 45 4.7 SSE 15 26 8 14 1023.5 - 0.0
03/10:00am 11.4 6.0 1.1 49 4.3 SSE 19 28 10 15 1024.0 - 0.0
03/09:30am 10.4 6.1 3.3 61 3.1 S 15 24 8 13 1024.2 - 0.0
03/09:00am 8.7 5.3 3.9 72 2.1 S 11 19 6 10 1024.6 1024.6 0.0
03/08:30am 6.4 3.8 4.1 85 1.0 S 7 9 4 5 1024.6 - 0.0
03/08:00am 4.1 0.9 2.9 92 0.5 SSW 9 13 5 7 1024.7 - 0.0
03/07:30am 2.3 -0.8 1.2 92 0.4 SSW 7 9 4 5 1024.4 - 0.0
03/07:00am 1.6 -2.4 0.5 92 0.4 SSW 11 15 6 8 1024.2 - 0.0
03/06:30am 1.1 -2.5 0.3 94 0.3 SW 9 13 5 7 1024.1 - 0.0
03/06:00am 1.6 -2.4 0.5 92 0.4 SW 11 13 6 7 1023.9 1023.9 0.0
03/05:30am 1.5 -2.5 0.4 92 0.4 SSW 11 13 6 7 1023.7 - 0.0
03/05:00am 1.6 -2.0 0.8 94 0.3 SSW 9 11 5 6 1023.6 - 0.0
03/04:30am 0.9 -2.2 0.4 96 0.2 SSW 6 9 3 5 1023.4 - 0.0
03/04:00am 1.7 -0.5 0.9 94 0.3 SSW 2 6 1 3 1023.3 - 0.0
03/03:30am 2.0 -0.6 0.9 92 0.4 SSW 4 7 2 4 1023.4 - 0.0
03/03:00am 2.3 -1.2 1.0 91 0.5 SSW 9 11 5 6 1023.4 1023.4 0.0
03/02:30am 2.9 -0.6 1.3 89 0.6 SSW 9 11 5 6 1023.5 - 0.0
03/02:00am 3.3 0.2 1.5 88 0.7 S 7 11 4 6 1023.8 - 0.0
03/01:30am 3.8 0.4 1.8 87 0.8 SSW 9 13 5 7 1023.5 - 0.0
03/01:00am 4.3 0.6 2.3 87 0.8 SSW 11 15 6 8 1023.7 - 0.0
03/12:30am 4.7 1.0 2.5 86 0.9 SSW 11 15 6 8 1023.7 - 0.0
03/12:00am 4.7 1.4 2.7 87 0.8 S 9 11 5 6 1023.5 1023.5 0.0
 
Date/Time
EST
Temp
°C
App
Temp
°C
Dew
Point
Rel
Hum
%
Delta-T
°C
Wind Press
QNH
hPa
Press
MSL
hPa
Rain
since 9 am
mm
Dir
 
Spd
km/h
Gust
km/h
Spd
kts
Gust
kts
02/11:30pm 5.0 1.8 2.8 86 0.9 S 9 11 5 6 1023.7 - 0.0
02/11:00pm 5.7 2.5 3.3 84 1.0 S 9 13 5 7 1023.8 - 0.0
02/10:30pm 6.9 3.3 3.1 77 1.6 S 11 17 6 9 1023.7 - 0.0
02/10:00pm 7.7 3.7 2.9 71 2.0 S 13 20 7 11 1023.6 - 0.0
02/09:30pm 7.9 3.9 2.9 70 2.1 S 13 19 7 10 1023.6 - 0.0
02/09:00pm 8.7 4.3 2.5 65 2.6 S 15 20 8 11 1023.5 1023.5 0.0
02/08:30pm 9.0 4.5 2.3 63 2.8 S 15 20 8 11 1023.2 - 0.0
02/08:00pm 9.5 5.0 2.4 61 3.0 S 15 20 8 11 1022.9 - 0.0
02/07:30pm 10.1 6.1 2.6 59 3.2 SSW 13 20 7 11 1022.5 - 0.0
02/07:00pm 10.6 6.3 3.3 60 3.2 SSW 15 20 8 11 1022.2 - 0.0
02/06:30pm 11.6 7.7 3.2 56 3.7 S 13 17 7 9 1021.7 - 0.0
02/06:00pm 12.9 8.2 3.2 51 4.3 SSW 17 24 9 13 1021.3 1021.3 0.0
02/05:30pm 14.0 8.8 2.4 45 5.1 SSW 19 24 10 13 1020.9 - 0.0
02/05:00pm 15.0 9.4 3.3 45 5.3 SSW 22 35 12 19 1020.5 - 0.0
02/04:30pm 15.2 8.6 2.1 41 5.8 SSW 26 39 14 21 1020.3 - 0.0
02/04:00pm 15.4 9.3 2.7 42 5.7 SSW 24 37 13 20 1019.9 - 0.0
02/03:30pm 15.0 9.2 2.4 42 5.6 SSW 22 37 12 20 1019.6 - 0.0
02/03:00pm 14.8 8.5 1.5 40 5.8 SSW 24 43 13 23 1019.6 1019.6 0.0
02/02:30pm 15.7 9.2 2.9 42 5.8 SSW 26 37 14 20 1019.4 - 0.0
02/02:00pm 14.3 8.3 3.5 48 4.9 SSW 24 37 13 20 1019.6 - 0.0
02/01:30pm 14.4 8.8 3.3 47 5.0 SSW 22 32 12 17 1019.6 - 0.0
02/01:00pm 13.9 7.9 3.5 49 4.7 SSW 24 35 13 19 1020.0 - 0.0
02/12:30pm 13.4 7.8 3.4 50 4.5 S 22 33 12 18 1020.1 - 0.0
02/12:00pm 13.5 7.4 2.9 48 4.7 S 24 33 13 18 1020.2 1020.2 0.0
02/11:30am 13.3 8.2 3.2 50 4.5 S 19 35 10 19 1020.2 - 0.0
02/11:00am 12.4 6.9 4.0 56 3.8 SSW 22 35 12 19 1020.2 - 0.0
02/10:30am 11.8 7.1 6.0 67 2.7 S 20 35 11 19 1020.2 - 0.0
02/10:00am 10.3 5.7 6.7 78 1.7 SSW 20 28 11 15 1020.3 - 0.0
02/09:30am 9.7 4.8 6.7 81 1.4 SW 22 30 12 16 1020.3 - 0.0
02/09:00am 8.1 3.4 6.1 87 0.9 SW 20 30 11 16 1020.0 1020.0 11.6
02/08:30am 6.5 1.8 5.1 91 0.6 SW 19 26 10 14 1019.5 - 11.6
02/08:00am 5.3 0.8 4.4 94 0.4 SW 17 22 9 12 1018.7 - 11.6
02/07:30am 4.2 -0.8 3.5 95 0.3 SW 19 24 10 13 1018.2 - 11.6
02/07:00am 3.5 -0.8 3.3 99 0.1 SW 15 19 8 10 1017.8 - 11.6
02/06:30am 3.7 -0.6 3.2 97 0.2 WSW 15 19 8 10 1017.4 - 11.6
02/06:00am 3.8 -0.8 3.6 99 0.1 WSW 17 20 9 11 1017.1 1017.2 11.6
02/05:30am 3.8 -0.1 3.3 97 0.2 WSW 13 17 7 9 1016.7 - 11.6
02/05:00am 4.1 -0.1 3.9 99 0.1 WSW 15 19 8 10 1016.4 - 11.6
02/04:30am 4.2 0.0 3.7 97 0.2 WSW 15 17 8 9 1016.1 - 11.4
02/04:00am 4.6 0.5 4.1 97 0.2 WSW 15 17 8 9 1015.9 - 11.4
02/03:30am 5.2 0.8 4.7 97 0.2 WSW 17 20 9 11 1015.5 - 11.4
02/03:00am 5.5 1.5 5.0 97 0.2 SW 15 19 8 10 1015.3 1015.4 11.4
02/02:30am 5.4 1.8 4.9 97 0.2 SW 13 17 7 9 1015.3 - 11.4
02/02:00am 5.6 2.0 5.1 97 0.2 WSW 13 17 7 9 1015.2 - 11.4
02/01:30am 5.5 2.3 5.0 97 0.2 WSW 11 13 6 7 1015.1 - 11.4
02/01:00am 4.6 2.0 4.4 99 0.1 SW 7 11 4 6 1015.2 - 11.4
02/12:30am 4.8 1.5 4.3 97 0.2 SW 11 11 6 6 1015.1 - 11.4
02/12:00am 4.1 0.7 3.9 99 0.1 SW 11 13 6 7 1015.1 1015.2 11.4
 
Date/Time
EST
Temp
°C
App
Temp
°C
Dew
Point
Rel
Hum
%
Delta-T
°C
Wind Press
QNH
hPa
Press
MSL
hPa
Rain
since 9 am
mm
Dir
 
Spd
km/h
Gust
km/h
Spd
kts
Gust
kts
01/11:30pm 5.7 3.4 5.0 95 0.3 SW 6 7 3 4 1014.8 - 11.4
01/11:00pm 6.8 4.2 6.1 95 0.3 SW 9 11 5 6 1014.7 - 11.4
01/10:30pm 7.0 4.4 6.3 95 0.3 SW 9 11 5 6 1014.5 - 11.4
01/10:00pm 7.3 4.8 6.4 94 0.4 SW 9 11 5 6 1014.5 - 11.4
01/09:30pm 7.7 5.3 6.8 94 0.4 SW 9 13 5 7 1014.3 - 11.4
01/09:00pm 9.1 6.6 8.1 93 0.5 SW 11 15 6 8 1014.1 1014.1 11.4
01/08:30pm 10.2 7.6 9.2 93 0.5 WSW 13 15 7 8 1013.8 - 11.4
01/08:00pm 10.6 8.1 9.6 93 0.5 W 13 17 7 9 1013.4 - 11.4
01/07:30pm 11.1 8.4 10.3 95 0.4 W 15 19 8 10 1013.0 - 11.4
01/07:00pm 11.1 8.4 10.3 95 0.4 NW 15 19 8 10 1012.6 - 11.4
01/06:30pm 11.2 9.3 10.4 95 0.4 NW 11 15 6 8 1012.2 - 11.4
01/06:00pm 11.5 9.6 10.5 94 0.5 NW 11 15 6 8 1011.9 1011.9 11.4
01/05:30pm 10.9 8.7 9.3 90 0.8 WNW 11 17 6 9 1011.4 - 11.4
01/05:00pm 11.8 9.2 10.6 92 0.6 WNW 15 19 8 10 1011.5 - 10.0
01/04:30pm 11.8 9.2 10.6 92 0.6 WNW 15 19 8 10 1011.3 - 9.6
01/04:00pm 11.6 8.2 10.6 94 0.5 WNW 19 24 10 13 1010.9 - 9.6
01/03:30pm 11.8 8.9 11.0 95 0.4 WNW 17 22 9 12 1010.9 - 9.4
01/03:00pm 11.9 9.4 10.9 94 0.5 WNW 15 19 8 10 1010.9 1010.9 8.8
01/02:30pm 12.1 8.2 10.8 92 0.7 W 22 28 12 15 1011.1 - 7.8
01/02:00pm 12.3 8.7 10.6 89 0.9 W 20 28 11 15 1011.0 - 7.2
01/01:30pm 12.0 8.9 10.3 89 0.9 W 17 20 9 11 1011.2 - 6.8
01/01:00pm 12.2 8.8 11.1 93 0.6 WSW 20 28 11 15 1011.8 - 6.2
01/12:30pm 12.0 8.2 11.0 94 0.5 WSW 22 28 12 15 1011.8 - 5.2
01/12:00pm 12.7 9.5 11.8 94 0.5 W 20 28 11 15 1012.0 1012.0 3.6
01/11:30am 12.9 11.3 11.6 92 0.7 WSW 11 15 6 8 1011.8 - 1.4
01/11:00am 13.3 11.9 11.0 86 1.2 WSW 9 13 5 7 1011.4 - 0.6
01/10:30am 13.5 12.0 10.4 81 1.6 WSW 9 11 5 6 1011.3 - 0.4
01/10:00am 12.6 10.2 8.8 77 1.9 WSW 11 15 6 8 1011.4 - 0.2
01/09:30am 14.4 10.9 5.6 55 4.2 W 13 17 7 9 1011.6 - 0.0
01/09:00am 14.8 10.0 2.8 44 5.4 W 17 22 9 12 1011.1 1011.2 0.0
01/08:30am 14.1 9.5 1.4 42 5.5 WNW 15 19 8 10 1011.0 - 0.0
01/08:00am 11.7 7.4 3.1 55 3.8 NNW 15 17 8 9 1010.8 - 0.0
01/07:30am 11.4 7.7 2.4 54 3.9 NW 11 11 6 6 1010.4 - 0.0
01/07:00am 11.8 8.1 2.6 53 4.0 WNW 11 13 6 7 1010.4 - 0.0
01/06:30am 14.7 9.4 -0.6 35 6.4 NW 17 22 9 12 1010.1 - 0.0
01/06:00am 15.5 9.8 -0.7 33 6.8 N 19 24 10 13 1009.2 1009.2 0.0
01/05:30am 15.4 9.7 -0.5 33 6.7 N 19 26 10 14 1009.6 - 0.0
01/05:00am 15.7 9.8 -0.7 32 6.9 N 20 28 11 15 1009.8 - 0.0
01/04:30am 15.6 9.7 -0.5 33 6.8 N 20 26 11 14 1009.8 - 0.0
01/04:00am 15.5 9.7 -0.3 34 6.7 N 20 24 11 13 1010.0 - 0.0
01/03:30am 16.0 10.0 -1.3 30 7.2 N 20 30 11 16 1010.1 - 0.0
01/03:00am 15.9 9.6 -1.1 31 7.1 N 22 30 12 16 1010.2 1010.2 0.0
01/02:30am 16.6 10.5 -2.5 27 7.8 N 20 28 11 15 1009.9 - 0.0
01/02:00am 15.3 9.3 -1.4 32 6.9 N 20 24 11 13 1011.1 - 0.0
01/01:30am 15.0 9.2 -1.2 33 6.7 N 19 24 10 13 1011.4 - 0.0
01/01:00am 14.4 9.1 -0.8 35 6.3 N 17 20 9 11 1011.5 - 0.0
01/12:30am 13.6 8.3 -0.4 38 5.8 N 17 20 9 11 1012.0 - 0.0
01/12:00am 12.9 7.7 -0.1 41 5.4 N 17 19 9 10 1012.2 - 0.0
 
Date/Time
EST
Temp
°C
App
Temp
°C
Dew
Point
Rel
Hum
%
Delta-T
°C
Wind Press
QNH
hPa
Press
MSL
hPa
Rain
since 9 am
mm
Dir
 
Spd
km/h
Gust
km/h
Spd
kts
Gust
kts
31/11:30pm 11.9 6.8 1.0 47 4.6 N 17 19 9 10 1012.5 - 0.0
31/11:00pm 12.8 8.5 1.3 45 4.9 N 13 15 7 8 1012.6 - 0.0
31/10:30pm 15.9 10.8 -1.9 29 7.3 N 15 19 8 10 1012.4 - 0.0
31/10:00pm 16.5 11.4 -1.9 28 7.6 N 15 20 8 11 1012.6 - 0.0
31/09:30pm 15.8 10.9 -0.5 33 6.9 N 15 17 8 9 1012.9 - 0.0
31/09:00pm 11.9 9.0 4.9 62 3.2 NW 9 11 5 6 1013.2 1013.3 0.0
31/08:30pm 11.9 9.5 5.2 63 3.1 NW 7 9 4 5 1013.5 - 0.0
31/08:00pm 13.3 10.7 4.4 55 4.1 NW 7 11 4 6 1013.5 - 0.0
31/07:30pm 14.2 13.1 5.3 55 4.2 CALM 0 6 0 3 1013.8 - 0.0
31/07:00pm 16.7 14.1 4.4 44 5.8 NW 7 9 4 5 1013.8 - 0.0
31/06:30pm 16.8 14.5 5.7 48 5.4 NW 7 9 4 5 1013.7 - 0.0
31/06:00pm 19.0 16.3 3.5 35 7.3 NW 7 9 4 5 1013.7 1013.8 0.0
31/05:30pm 19.1 16.5 6.3 43 6.4 NW 9 11 5 6 1013.5 - 0.0
31/05:00pm 21.0 17.0 3.1 30 8.5 NW 13 15 7 8 1013.6 - 0.0
31/04:30pm 22.1 17.2 1.7 26 9.5 NNW 17 26 9 14 1013.7 - 0.0
31/04:00pm 22.0 16.9 0.8 24 9.7 N 17 20 9 11 1013.9 - 0.0
31/03:30pm 23.4 16.2 -1.8 18 11.1 NNW 26 33 14 18 1014.0 - 0.0

Other Formats:

Comma delimited format used in spreadsheet applications
http://www.bom.gov.au/fwo/IDN60801/IDN60801.94843.axf

JavaScript Object Notation format (JSON) in row-major order
http://www.bom.gov.au/fwo/IDN60801/IDN60801.94843.json